الصفحة الرئيسية
METAR-TAF:

METAR-TAF

مطار :

أرخانغلسك, روسيا

دائرة عرض: 64-30N, خط طول: 040-44E, ارتفاع: 13 متر

مراقبة الطقس الحالي

تاريخ ووقت الإصدار 22 دقيقة قبل الساعة 00:00UTC
ريح 4 عقدة من الجنوب
درجة الحرارة 14°درجة مئوية
الرطوبة 94%
ضغط 1018 hPa
الرؤية 10 كم أو أكثر
غيوم متفرقة على ارتفاع 4000 قدم

METAR: ULAA 180000Z 19002MPS 9999 SCT040 14/13 Q1018 R08/CLRD70 NOSIG RMK QFE763/1017

زمن: 03:22 (00:22 UTC)

توقعات

تاريخ ووقت الإصدار 1ساعة و 27 دقيقة قبل الساعة 22:55UTC
التوقعات صالحة من18 الساعة 00 UTC إلى 18 الساعة 24 UTC
ريح 6 عقدة من الجنوب/الجنوب الغربي
الرؤية 10 كم أو أكثر
غيوم متفرقة على ارتفاع 2000 قدم
مؤقت
من 18 الساعة 00 UTC إلى 18 الساعة 03 UTC
الرؤية: 3100 متر
غيوم مفككة على ارتفاع 1100 قدم
غشاء
أصبح
من 18 الساعة 03 UTC إلى 18 الساعة 05 UTC
ريح 6 عقدة من الجنوب/الجنوب الغربي تتزايد حتى 16 عقدة
مؤقت
من 18 الساعة 05 UTC إلى 18 الساعة 16 UTC
ريح 8 عقدة من الجنوب الغربي تتزايد حتى 21 عقدة

TAF: ULAA 172255Z 1800/1824 20003MPS 9999 SCT020 TEMPO 1800/1803 3100 BR BKN011 BECMG 1803/1805 20003G08MPS TEMPO 1805/1816 22004G11MPS

أرصاد الطقس والتوقعات من أكثر من 4000 مطار (تقارير الطقس للمطار METAR والتنبؤ بالطقس بالمطارTAF).

المحطات المتاحة هي النقط الصفراء والحمراء على الخريطة.

حرك المؤشر فوق النقطة لمعرفة اسم المحطة.

ثم انقر لمعرفة أرصاد وتوقعات الطقس.

لتغيير الخارطة: اضغط على الأزرار الخضراء مع رمز الصليب الأسود للتكبير. على الزر الأخضر مع شرطة للتصغير، أو على الأسهم الخضراء للخرائط المجاورة.


METAR-TAF: